<?xml version="1.0" encoding="UTF-8" standalone="no" ?>
<gpx xmlns="http://www.topografix.com/GPX/1/1" xmlns:xsi="http://www.w3.org/2001/XMLSchema-instance" xsi:schemaLocation="http://www.topografix.com/GPX/1/1 http://www.topografix.com/GPX/1/1/gpx.xsd" version="1.1" creator="VisuGPX - https://www.visugpx.com">
  <metadata>
    <name>boucle sur Ginoles 2 km</name>
    <desc><![CDATA[préparation compétition vtt jeunes xc]]></desc>
  </metadata>
  <trk>
    <name><![CDATA[B214-03-02 16:10:44]]></name>
    <trkseg>
      <trkpt lat="42.8675" lon="2.16039">
        <ele>370.73</ele>
        <time>2014-03-02T14:30:00Z</time>
      </trkpt>
      <trkpt lat="42.8675" lon="2.1604">
        <ele>367.36</ele>
        <time>2014-03-02T14:30:02Z</time>
      </trkpt>
      <trkpt lat="42.8675" lon="2.1604">
        <ele>367.36</ele>
        <time>2014-03-02T14:30:03Z</time>
      </trkpt>
      <trkpt lat="42.8675" lon="2.16041">
        <ele>363.52</ele>
        <time>2014-03-02T14:30:07Z</time>
      </trkpt>
      <trkpt lat="42.86751" lon="2.16041">
        <ele>360.15</ele>
        <time>2014-03-02T14:30:11Z</time>
      </trkpt>
      <trkpt lat="42.86751" lon="2.16042">
        <ele>356.79</ele>
        <time>2014-03-02T14:30:16Z</time>
      </trkpt>
      <trkpt lat="42.86751" lon="2.16042">
        <ele>355.34</ele>
        <time>2014-03-02T14:30:18Z</time>
      </trkpt>
      <trkpt lat="42.86751" lon="2.16042">
        <ele>353.42</ele>
        <time>2014-03-02T14:30:21Z</time>
      </trkpt>
      <trkpt lat="42.86752" lon="2.16042">
        <ele>350.54</ele>
        <time>2014-03-02T14:30:27Z</time>
      </trkpt>
      <trkpt lat="42.8675" lon="2.16044">
        <ele>349.1</ele>
        <time>2014-03-02T14:30:31Z</time>
      </trkpt>
      <trkpt lat="42.86747" lon="2.16047">
        <ele>346.21</ele>
        <time>2014-03-02T14:30:39Z</time>
      </trkpt>
      <trkpt lat="42.86745" lon="2.16051">
        <ele>343.81</ele>
        <time>2014-03-02T14:30:45Z</time>
      </trkpt>
      <trkpt lat="42.86741" lon="2.16065">
        <ele>342.37</ele>
        <time>2014-03-02T14:30:54Z</time>
      </trkpt>
      <trkpt lat="42.86738" lon="2.1607">
        <ele>341.89</ele>
        <time>2014-03-02T14:31:00Z</time>
      </trkpt>
      <trkpt lat="42.86731" lon="2.16082">
        <ele>340.92</ele>
        <time>2014-03-02T14:31:10Z</time>
      </trkpt>
      <trkpt lat="42.86729" lon="2.16085">
        <ele>341.41</ele>
        <time>2014-03-02T14:31:15Z</time>
      </trkpt>
      <trkpt lat="42.86727" lon="2.16088">
        <ele>341.41</ele>
        <time>2014-03-02T14:31:19Z</time>
      </trkpt>
      <trkpt lat="42.86725" lon="2.16093">
        <ele>341.41</ele>
        <time>2014-03-02T14:31:25Z</time>
      </trkpt>
      <trkpt lat="42.86724" lon="2.16095">
        <ele>341.41</ele>
        <time>2014-03-02T14:31:27Z</time>
      </trkpt>
      <trkpt lat="42.8672" lon="2.16101">
        <ele>341.41</ele>
        <time>2014-03-02T14:31:33Z</time>
      </trkpt>
      <trkpt lat="42.8672" lon="2.16101">
        <ele>342.85</ele>
        <time>2014-03-02T14:31:35Z</time>
      </trkpt>
      <trkpt lat="42.86715" lon="2.16107">
        <ele>342.85</ele>
        <time>2014-03-02T14:31:41Z</time>
      </trkpt>
      <trkpt lat="42.86714" lon="2.1611">
        <ele>342.85</ele>
        <time>2014-03-02T14:31:44Z</time>
      </trkpt>
      <trkpt lat="42.86713" lon="2.16113">
        <ele>342.85</ele>
        <time>2014-03-02T14:31:47Z</time>
      </trkpt>
      <trkpt lat="42.86709" lon="2.16117">
        <ele>342.85</ele>
        <time>2014-03-02T14:31:50Z</time>
      </trkpt>
      <trkpt lat="42.86708" lon="2.16118">
        <ele>342.85</ele>
        <time>2014-03-02T14:31:51Z</time>
      </trkpt>
      <trkpt lat="42.86705" lon="2.16125">
        <ele>341.41</ele>
        <time>2014-03-02T14:31:58Z</time>
      </trkpt>
      <trkpt lat="42.86705" lon="2.16125">
        <ele>341.41</ele>
        <time>2014-03-02T14:31:59Z</time>
      </trkpt>
      <trkpt lat="42.86705" lon="2.16131">
        <ele>341.41</ele>
        <time>2014-03-02T14:32:04Z</time>
      </trkpt>
      <trkpt lat="42.86705" lon="2.1614">
        <ele>340.92</ele>
        <time>2014-03-02T14:32:10Z</time>
      </trkpt>
      <trkpt lat="42.86706" lon="2.16147">
        <ele>340.44</ele>
        <time>2014-03-02T14:32:16Z</time>
      </trkpt>
      <trkpt lat="42.86707" lon="2.16155">
        <ele>339.96</ele>
        <time>2014-03-02T14:32:22Z</time>
      </trkpt>
      <trkpt lat="42.86709" lon="2.16166">
        <ele>339.48</ele>
        <time>2014-03-02T14:32:30Z</time>
      </trkpt>
      <trkpt lat="42.8671" lon="2.1618">
        <ele>339</ele>
        <time>2014-03-02T14:32:40Z</time>
      </trkpt>
      <trkpt lat="42.86709" lon="2.16187">
        <ele>339</ele>
        <time>2014-03-02T14:32:46Z</time>
      </trkpt>
      <trkpt lat="42.86704" lon="2.16195">
        <ele>338.52</ele>
        <time>2014-03-02T14:32:54Z</time>
      </trkpt>
      <trkpt lat="42.86703" lon="2.16198">
        <ele>338.52</ele>
        <time>2014-03-02T14:32:57Z</time>
      </trkpt>
      <trkpt lat="42.86695" lon="2.16205">
        <ele>338.52</ele>
        <time>2014-03-02T14:33:06Z</time>
      </trkpt>
      <trkpt lat="42.86691" lon="2.1621">
        <ele>338.52</ele>
        <time>2014-03-02T14:33:15Z</time>
      </trkpt>
      <trkpt lat="42.86682" lon="2.16224">
        <ele>339.96</ele>
        <time>2014-03-02T14:33:30Z</time>
      </trkpt>
      <trkpt lat="42.86679" lon="2.16233">
        <ele>340.44</ele>
        <time>2014-03-02T14:33:42Z</time>
      </trkpt>
      <trkpt lat="42.86679" lon="2.1624">
        <ele>340.44</ele>
        <time>2014-03-02T14:33:48Z</time>
      </trkpt>
      <trkpt lat="42.86679" lon="2.16245">
        <ele>340.44</ele>
        <time>2014-03-02T14:33:54Z</time>
      </trkpt>
      <trkpt lat="42.86679" lon="2.16249">
        <ele>340.92</ele>
        <time>2014-03-02T14:33:57Z</time>
      </trkpt>
      <trkpt lat="42.86682" lon="2.1626">
        <ele>341.89</ele>
        <time>2014-03-02T14:34:06Z</time>
      </trkpt>
      <trkpt lat="42.86681" lon="2.16263">
        <ele>341.89</ele>
        <time>2014-03-02T14:34:09Z</time>
      </trkpt>
      <trkpt lat="42.86678" lon="2.16265">
        <ele>341.89</ele>
        <time>2014-03-02T14:34:12Z</time>
      </trkpt>
      <trkpt lat="42.86677" lon="2.16265">
        <ele>342.37</ele>
        <time>2014-03-02T14:34:18Z</time>
      </trkpt>
      <trkpt lat="42.86675" lon="2.16261">
        <ele>342.37</ele>
        <time>2014-03-02T14:34:27Z</time>
      </trkpt>
      <trkpt lat="42.86669" lon="2.16248">
        <ele>343.81</ele>
        <time>2014-03-02T14:34:40Z</time>
      </trkpt>
      <trkpt lat="42.86665" lon="2.16239">
        <ele>344.29</ele>
        <time>2014-03-02T14:34:48Z</time>
      </trkpt>
      <trkpt lat="42.86664" lon="2.16238">
        <ele>344.29</ele>
        <time>2014-03-02T14:34:49Z</time>
      </trkpt>
      <trkpt lat="42.86654" lon="2.16227">
        <ele>344.77</ele>
        <time>2014-03-02T14:35:02Z</time>
      </trkpt>
      <trkpt lat="42.86648" lon="2.16213">
        <ele>345.25</ele>
        <time>2014-03-02T14:35:16Z</time>
      </trkpt>
      <trkpt lat="42.86642" lon="2.162">
        <ele>346.21</ele>
        <time>2014-03-02T14:35:27Z</time>
      </trkpt>
      <trkpt lat="42.86637" lon="2.16186">
        <ele>347.17</ele>
        <time>2014-03-02T14:35:40Z</time>
      </trkpt>
      <trkpt lat="42.86631" lon="2.16174">
        <ele>348.13</ele>
        <time>2014-03-02T14:35:53Z</time>
      </trkpt>
      <trkpt lat="42.86627" lon="2.16166">
        <ele>349.1</ele>
        <time>2014-03-02T14:36:05Z</time>
      </trkpt>
      <trkpt lat="42.86622" lon="2.16156">
        <ele>350.06</ele>
        <time>2014-03-02T14:36:14Z</time>
      </trkpt>
      <trkpt lat="42.86623" lon="2.16144">
        <ele>350.54</ele>
        <time>2014-03-02T14:36:23Z</time>
      </trkpt>
      <trkpt lat="42.86624" lon="2.16137">
        <ele>351.5</ele>
        <time>2014-03-02T14:36:30Z</time>
      </trkpt>
      <trkpt lat="42.86625" lon="2.16134">
        <ele>350.06</ele>
        <time>2014-03-02T14:36:32Z</time>
      </trkpt>
      <trkpt lat="42.86622" lon="2.16123">
        <ele>351.98</ele>
        <time>2014-03-02T14:36:41Z</time>
      </trkpt>
      <trkpt lat="42.86623" lon="2.1612">
        <ele>351.98</ele>
        <time>2014-03-02T14:36:45Z</time>
      </trkpt>
      <trkpt lat="42.86621" lon="2.16118">
        <ele>352.46</ele>
        <time>2014-03-02T14:36:51Z</time>
      </trkpt>
      <trkpt lat="42.86621" lon="2.16119">
        <ele>352.46</ele>
        <time>2014-03-02T14:36:58Z</time>
      </trkpt>
      <trkpt lat="42.86621" lon="2.16117">
        <ele>351.02</ele>
        <time>2014-03-02T14:37:03Z</time>
      </trkpt>
      <trkpt lat="42.8662" lon="2.16117">
        <ele>352.46</ele>
        <time>2014-03-02T14:37:05Z</time>
      </trkpt>
      <trkpt lat="42.86618" lon="2.16111">
        <ele>352.94</ele>
        <time>2014-03-02T14:37:14Z</time>
      </trkpt>
      <trkpt lat="42.86617" lon="2.16107">
        <ele>352.94</ele>
        <time>2014-03-02T14:37:17Z</time>
      </trkpt>
      <trkpt lat="42.86614" lon="2.16088">
        <ele>352.94</ele>
        <time>2014-03-02T14:37:30Z</time>
      </trkpt>
      <trkpt lat="42.86611" lon="2.16073">
        <ele>354.38</ele>
        <time>2014-03-02T14:37:43Z</time>
      </trkpt>
      <trkpt lat="42.86607" lon="2.16063">
        <ele>355.34</ele>
        <time>2014-03-02T14:37:54Z</time>
      </trkpt>
      <trkpt lat="42.86602" lon="2.16053">
        <ele>355.34</ele>
        <time>2014-03-02T14:38:05Z</time>
      </trkpt>
      <trkpt lat="42.86595" lon="2.16043">
        <ele>356.79</ele>
        <time>2014-03-02T14:38:16Z</time>
      </trkpt>
      <trkpt lat="42.86597" lon="2.1604">
        <ele>356.79</ele>
        <time>2014-03-02T14:38:24Z</time>
      </trkpt>
      <trkpt lat="42.86595" lon="2.16044">
        <ele>356.79</ele>
        <time>2014-03-02T14:38:34Z</time>
      </trkpt>
      <trkpt lat="42.86595" lon="2.16042">
        <ele>356.79</ele>
        <time>2014-03-02T14:38:43Z</time>
      </trkpt>
      <trkpt lat="42.86594" lon="2.16041">
        <ele>356.79</ele>
        <time>2014-03-02T14:38:44Z</time>
      </trkpt>
      <trkpt lat="42.86591" lon="2.16038">
        <ele>356.79</ele>
        <time>2014-03-02T14:38:48Z</time>
      </trkpt>
      <trkpt lat="42.86588" lon="2.16033">
        <ele>357.75</ele>
        <time>2014-03-02T14:38:54Z</time>
      </trkpt>
      <trkpt lat="42.86582" lon="2.1603">
        <ele>358.23</ele>
        <time>2014-03-02T14:39:01Z</time>
      </trkpt>
      <trkpt lat="42.86577" lon="2.16028">
        <ele>358.71</ele>
        <time>2014-03-02T14:39:08Z</time>
      </trkpt>
      <trkpt lat="42.86578" lon="2.16021">
        <ele>359.19</ele>
        <time>2014-03-02T14:39:16Z</time>
      </trkpt>
      <trkpt lat="42.86579" lon="2.1602">
        <ele>359.19</ele>
        <time>2014-03-02T14:39:25Z</time>
      </trkpt>
      <trkpt lat="42.8658" lon="2.16021">
        <ele>359.19</ele>
        <time>2014-03-02T14:39:37Z</time>
      </trkpt>
      <trkpt lat="42.86578" lon="2.16024">
        <ele>359.19</ele>
        <time>2014-03-02T14:39:47Z</time>
      </trkpt>
      <trkpt lat="42.86572" lon="2.16028">
        <ele>359.67</ele>
        <time>2014-03-02T14:39:52Z</time>
      </trkpt>
      <trkpt lat="42.86564" lon="2.16035">
        <ele>360.15</ele>
        <time>2014-03-02T14:40:00Z</time>
      </trkpt>
      <trkpt lat="42.86552" lon="2.1604">
        <ele>361.11</ele>
        <time>2014-03-02T14:40:10Z</time>
      </trkpt>
      <trkpt lat="42.86549" lon="2.16038">
        <ele>361.11</ele>
        <time>2014-03-02T14:40:17Z</time>
      </trkpt>
      <trkpt lat="42.86547" lon="2.16038">
        <ele>361.11</ele>
        <time>2014-03-02T14:40:29Z</time>
      </trkpt>
      <trkpt lat="42.86537" lon="2.16039">
        <ele>361.59</ele>
        <time>2014-03-02T14:40:37Z</time>
      </trkpt>
      <trkpt lat="42.86528" lon="2.16037">
        <ele>362.55</ele>
        <time>2014-03-02T14:40:45Z</time>
      </trkpt>
      <trkpt lat="42.86522" lon="2.16026">
        <ele>363.04</ele>
        <time>2014-03-02T14:40:55Z</time>
      </trkpt>
      <trkpt lat="42.86519" lon="2.16018">
        <ele>364</ele>
        <time>2014-03-02T14:41:02Z</time>
      </trkpt>
      <trkpt lat="42.86516" lon="2.16011">
        <ele>364.96</ele>
        <time>2014-03-02T14:41:10Z</time>
      </trkpt>
      <trkpt lat="42.86515" lon="2.16009">
        <ele>365.44</ele>
        <time>2014-03-02T14:41:19Z</time>
      </trkpt>
      <trkpt lat="42.86516" lon="2.16008">
        <ele>365.44</ele>
        <time>2014-03-02T14:41:27Z</time>
      </trkpt>
      <trkpt lat="42.86512" lon="2.16003">
        <ele>365.44</ele>
        <time>2014-03-02T14:41:39Z</time>
      </trkpt>
      <trkpt lat="42.86503" lon="2.16001">
        <ele>366.88</ele>
        <time>2014-03-02T14:41:49Z</time>
      </trkpt>
      <trkpt lat="42.86497" lon="2.15995">
        <ele>368.32</ele>
        <time>2014-03-02T14:41:57Z</time>
      </trkpt>
      <trkpt lat="42.86491" lon="2.15987">
        <ele>368.32</ele>
        <time>2014-03-02T14:42:06Z</time>
      </trkpt>
      <trkpt lat="42.86488" lon="2.15982">
        <ele>368.32</ele>
        <time>2014-03-02T14:42:12Z</time>
      </trkpt>
      <trkpt lat="42.86487" lon="2.15979">
        <ele>368.8</ele>
        <time>2014-03-02T14:42:15Z</time>
      </trkpt>
      <trkpt lat="42.86483" lon="2.15973">
        <ele>369.28</ele>
        <time>2014-03-02T14:42:22Z</time>
      </trkpt>
      <trkpt lat="42.86481" lon="2.15969">
        <ele>369.76</ele>
        <time>2014-03-02T14:42:29Z</time>
      </trkpt>
      <trkpt lat="42.86477" lon="2.15961">
        <ele>370.24</ele>
        <time>2014-03-02T14:42:34Z</time>
      </trkpt>
      <trkpt lat="42.86471" lon="2.15954">
        <ele>370.73</ele>
        <time>2014-03-02T14:42:43Z</time>
      </trkpt>
      <trkpt lat="42.86468" lon="2.15948">
        <ele>371.69</ele>
        <time>2014-03-02T14:42:51Z</time>
      </trkpt>
      <trkpt lat="42.86464" lon="2.1594">
        <ele>373.13</ele>
        <time>2014-03-02T14:42:59Z</time>
      </trkpt>
      <trkpt lat="42.8647" lon="2.1593">
        <ele>373.13</ele>
        <time>2014-03-02T14:43:09Z</time>
      </trkpt>
      <trkpt lat="42.86475" lon="2.15919">
        <ele>373.61</ele>
        <time>2014-03-02T14:43:18Z</time>
      </trkpt>
      <trkpt lat="42.86477" lon="2.15908">
        <ele>373.61</ele>
        <time>2014-03-02T14:43:26Z</time>
      </trkpt>
      <trkpt lat="42.86477" lon="2.15906">
        <ele>373.61</ele>
        <time>2014-03-02T14:43:27Z</time>
      </trkpt>
      <trkpt lat="42.86478" lon="2.15897">
        <ele>374.57</ele>
        <time>2014-03-02T14:43:34Z</time>
      </trkpt>
      <trkpt lat="42.86478" lon="2.15888">
        <ele>375.05</ele>
        <time>2014-03-02T14:43:42Z</time>
      </trkpt>
      <trkpt lat="42.86477" lon="2.15884">
        <ele>375.53</ele>
        <time>2014-03-02T14:43:46Z</time>
      </trkpt>
      <trkpt lat="42.86478" lon="2.15876">
        <ele>375.53</ele>
        <time>2014-03-02T14:43:52Z</time>
      </trkpt>
      <trkpt lat="42.86479" lon="2.15868">
        <ele>376.97</ele>
        <time>2014-03-02T14:44:00Z</time>
      </trkpt>
      <trkpt lat="42.8648" lon="2.15866">
        <ele>377.45</ele>
        <time>2014-03-02T14:44:11Z</time>
      </trkpt>
      <trkpt lat="42.86481" lon="2.15857">
        <ele>377.45</ele>
        <time>2014-03-02T14:44:22Z</time>
      </trkpt>
      <trkpt lat="42.86483" lon="2.15854">
        <ele>377.45</ele>
        <time>2014-03-02T14:44:34Z</time>
      </trkpt>
      <trkpt lat="42.86484" lon="2.15849">
        <ele>377.45</ele>
        <time>2014-03-02T14:44:45Z</time>
      </trkpt>
      <trkpt lat="42.86486" lon="2.1584">
        <ele>377.45</ele>
        <time>2014-03-02T14:44:53Z</time>
      </trkpt>
      <trkpt lat="42.86488" lon="2.15829">
        <ele>377.45</ele>
        <time>2014-03-02T14:45:02Z</time>
      </trkpt>
      <trkpt lat="42.86491" lon="2.15818">
        <ele>377.45</ele>
        <time>2014-03-02T14:45:11Z</time>
      </trkpt>
      <trkpt lat="42.86492" lon="2.15816">
        <ele>377.45</ele>
        <time>2014-03-02T14:45:13Z</time>
      </trkpt>
      <trkpt lat="42.86494" lon="2.1581">
        <ele>377.45</ele>
        <time>2014-03-02T14:45:19Z</time>
      </trkpt>
      <trkpt lat="42.86496" lon="2.15802">
        <ele>377.45</ele>
        <time>2014-03-02T14:45:27Z</time>
      </trkpt>
      <trkpt lat="42.86499" lon="2.15797">
        <ele>377.45</ele>
        <time>2014-03-02T14:45:34Z</time>
      </trkpt>
      <trkpt lat="42.86503" lon="2.15791">
        <ele>377.45</ele>
        <time>2014-03-02T14:45:42Z</time>
      </trkpt>
      <trkpt lat="42.86506" lon="2.15785">
        <ele>378.42</ele>
        <time>2014-03-02T14:45:49Z</time>
      </trkpt>
      <trkpt lat="42.86506" lon="2.15782">
        <ele>378.42</ele>
        <time>2014-03-02T14:45:57Z</time>
      </trkpt>
      <trkpt lat="42.86506" lon="2.15776">
        <ele>378.9</ele>
        <time>2014-03-02T14:46:04Z</time>
      </trkpt>
      <trkpt lat="42.86504" lon="2.15767">
        <ele>378.9</ele>
        <time>2014-03-02T14:46:11Z</time>
      </trkpt>
      <trkpt lat="42.86503" lon="2.15756">
        <ele>379.38</ele>
        <time>2014-03-02T14:46:19Z</time>
      </trkpt>
      <trkpt lat="42.86498" lon="2.15742">
        <ele>379.86</ele>
        <time>2014-03-02T14:46:33Z</time>
      </trkpt>
      <trkpt lat="42.86498" lon="2.15737">
        <ele>378.9</ele>
        <time>2014-03-02T14:46:37Z</time>
      </trkpt>
      <trkpt lat="42.86495" lon="2.15722">
        <ele>378.9</ele>
        <time>2014-03-02T14:46:47Z</time>
      </trkpt>
      <trkpt lat="42.86494" lon="2.15714">
        <ele>380.34</ele>
        <time>2014-03-02T14:46:55Z</time>
      </trkpt>
      <trkpt lat="42.86492" lon="2.15706">
        <ele>380.82</ele>
        <time>2014-03-02T14:47:03Z</time>
      </trkpt>
      <trkpt lat="42.86486" lon="2.15696">
        <ele>381.3</ele>
        <time>2014-03-02T14:47:14Z</time>
      </trkpt>
      <trkpt lat="42.86481" lon="2.15681">
        <ele>381.78</ele>
        <time>2014-03-02T14:47:27Z</time>
      </trkpt>
      <trkpt lat="42.86477" lon="2.15671">
        <ele>382.74</ele>
        <time>2014-03-02T14:47:37Z</time>
      </trkpt>
      <trkpt lat="42.86477" lon="2.15664">
        <ele>383.22</ele>
        <time>2014-03-02T14:47:45Z</time>
      </trkpt>
      <trkpt lat="42.86479" lon="2.15666">
        <ele>383.22</ele>
        <time>2014-03-02T14:47:54Z</time>
      </trkpt>
      <trkpt lat="42.86481" lon="2.15663">
        <ele>381.78</ele>
        <time>2014-03-02T14:47:57Z</time>
      </trkpt>
      <trkpt lat="42.86485" lon="2.15648">
        <ele>380.82</ele>
        <time>2014-03-02T14:48:09Z</time>
      </trkpt>
      <trkpt lat="42.86484" lon="2.15635">
        <ele>379.38</ele>
        <time>2014-03-02T14:48:20Z</time>
      </trkpt>
      <trkpt lat="42.86483" lon="2.15623">
        <ele>377.94</ele>
        <time>2014-03-02T14:48:30Z</time>
      </trkpt>
      <trkpt lat="42.86489" lon="2.15607">
        <ele>377.45</ele>
        <time>2014-03-02T14:48:41Z</time>
      </trkpt>
      <trkpt lat="42.86495" lon="2.15599">
        <ele>376.01</ele>
        <time>2014-03-02T14:48:50Z</time>
      </trkpt>
      <trkpt lat="42.865" lon="2.15599">
        <ele>375.53</ele>
        <time>2014-03-02T14:48:58Z</time>
      </trkpt>
      <trkpt lat="42.86503" lon="2.15593">
        <ele>374.09</ele>
        <time>2014-03-02T14:49:06Z</time>
      </trkpt>
      <trkpt lat="42.86508" lon="2.1559">
        <ele>373.61</ele>
        <time>2014-03-02T14:49:13Z</time>
      </trkpt>
      <trkpt lat="42.86512" lon="2.15591">
        <ele>373.13</ele>
        <time>2014-03-02T14:49:19Z</time>
      </trkpt>
      <trkpt lat="42.86518" lon="2.15586">
        <ele>373.13</ele>
        <time>2014-03-02T14:49:28Z</time>
      </trkpt>
      <trkpt lat="42.86524" lon="2.15582">
        <ele>373.13</ele>
        <time>2014-03-02T14:49:34Z</time>
      </trkpt>
      <trkpt lat="42.86526" lon="2.15577">
        <ele>374.57</ele>
        <time>2014-03-02T14:49:39Z</time>
      </trkpt>
      <trkpt lat="42.86529" lon="2.1557">
        <ele>376.49</ele>
        <time>2014-03-02T14:49:48Z</time>
      </trkpt>
      <trkpt lat="42.86531" lon="2.15562">
        <ele>376.97</ele>
        <time>2014-03-02T14:49:55Z</time>
      </trkpt>
      <trkpt lat="42.86533" lon="2.15557">
        <ele>377.45</ele>
        <time>2014-03-02T14:50:02Z</time>
      </trkpt>
      <trkpt lat="42.86533" lon="2.1555">
        <ele>376.01</ele>
        <time>2014-03-02T14:50:09Z</time>
      </trkpt>
      <trkpt lat="42.86537" lon="2.15541">
        <ele>376.01</ele>
        <time>2014-03-02T14:50:18Z</time>
      </trkpt>
      <trkpt lat="42.8654" lon="2.15531">
        <ele>375.53</ele>
        <time>2014-03-02T14:50:27Z</time>
      </trkpt>
      <trkpt lat="42.86542" lon="2.15527">
        <ele>374.09</ele>
        <time>2014-03-02T14:50:34Z</time>
      </trkpt>
      <trkpt lat="42.86543" lon="2.15527">
        <ele>373.61</ele>
        <time>2014-03-02T14:50:40Z</time>
      </trkpt>
      <trkpt lat="42.86548" lon="2.1553">
        <ele>372.65</ele>
        <time>2014-03-02T14:50:47Z</time>
      </trkpt>
      <trkpt lat="42.8655" lon="2.1553">
        <ele>372.65</ele>
        <time>2014-03-02T14:50:49Z</time>
      </trkpt>
      <trkpt lat="42.86555" lon="2.15529">
        <ele>372.65</ele>
        <time>2014-03-02T14:50:56Z</time>
      </trkpt>
      <trkpt lat="42.86557" lon="2.15525">
        <ele>372.65</ele>
        <time>2014-03-02T14:51:03Z</time>
      </trkpt>
      <trkpt lat="42.8656" lon="2.15516">
        <ele>373.61</ele>
        <time>2014-03-02T14:51:12Z</time>
      </trkpt>
      <trkpt lat="42.86563" lon="2.15507">
        <ele>374.57</ele>
        <time>2014-03-02T14:51:20Z</time>
      </trkpt>
      <trkpt lat="42.86566" lon="2.15501">
        <ele>374.09</ele>
        <time>2014-03-02T14:51:27Z</time>
      </trkpt>
      <trkpt lat="42.86568" lon="2.15495">
        <ele>374.09</ele>
        <time>2014-03-02T14:51:33Z</time>
      </trkpt>
      <trkpt lat="42.86572" lon="2.15485">
        <ele>374.09</ele>
        <time>2014-03-02T14:51:42Z</time>
      </trkpt>
      <trkpt lat="42.86572" lon="2.15482">
        <ele>374.57</ele>
        <time>2014-03-02T14:51:48Z</time>
      </trkpt>
      <trkpt lat="42.86573" lon="2.15474">
        <ele>374.57</ele>
        <time>2014-03-02T14:51:55Z</time>
      </trkpt>
      <trkpt lat="42.86572" lon="2.15469">
        <ele>374.57</ele>
        <time>2014-03-02T14:52:01Z</time>
      </trkpt>
      <trkpt lat="42.86571" lon="2.15461">
        <ele>374.57</ele>
        <time>2014-03-02T14:52:08Z</time>
      </trkpt>
      <trkpt lat="42.86569" lon="2.15454">
        <ele>375.53</ele>
        <time>2014-03-02T14:52:16Z</time>
      </trkpt>
      <trkpt lat="42.86568" lon="2.15449">
        <ele>376.01</ele>
        <time>2014-03-02T14:52:22Z</time>
      </trkpt>
      <trkpt lat="42.86567" lon="2.15445">
        <ele>376.97</ele>
        <time>2014-03-02T14:52:27Z</time>
      </trkpt>
      <trkpt lat="42.86564" lon="2.15435">
        <ele>377.45</ele>
        <time>2014-03-02T14:52:36Z</time>
      </trkpt>
      <trkpt lat="42.8656" lon="2.15428">
        <ele>377.94</ele>
        <time>2014-03-02T14:52:43Z</time>
      </trkpt>
      <trkpt lat="42.86557" lon="2.1542">
        <ele>378.42</ele>
        <time>2014-03-02T14:52:50Z</time>
      </trkpt>
      <trkpt lat="42.86556" lon="2.15414">
        <ele>378.42</ele>
        <time>2014-03-02T14:52:56Z</time>
      </trkpt>
      <trkpt lat="42.86558" lon="2.15406">
        <ele>376.49</ele>
        <time>2014-03-02T14:53:03Z</time>
      </trkpt>
      <trkpt lat="42.8656" lon="2.15405">
        <ele>376.49</ele>
        <time>2014-03-02T14:53:06Z</time>
      </trkpt>
      <trkpt lat="42.86564" lon="2.15402">
        <ele>376.01</ele>
        <time>2014-03-02T14:53:11Z</time>
      </trkpt>
      <trkpt lat="42.86568" lon="2.154">
        <ele>375.05</ele>
        <time>2014-03-02T14:53:19Z</time>
      </trkpt>
      <trkpt lat="42.86569" lon="2.15399">
        <ele>375.05</ele>
        <time>2014-03-02T14:53:20Z</time>
      </trkpt>
      <trkpt lat="42.8657" lon="2.15401">
        <ele>375.05</ele>
        <time>2014-03-02T14:53:26Z</time>
      </trkpt>
      <trkpt lat="42.86572" lon="2.15402">
        <ele>375.05</ele>
        <time>2014-03-02T14:53:29Z</time>
      </trkpt>
      <trkpt lat="42.86578" lon="2.15402">
        <ele>375.05</ele>
        <time>2014-03-02T14:53:36Z</time>
      </trkpt>
      <trkpt lat="42.86583" lon="2.15406">
        <ele>376.97</ele>
        <time>2014-03-02T14:53:43Z</time>
      </trkpt>
      <trkpt lat="42.86585" lon="2.1541">
        <ele>376.97</ele>
        <time>2014-03-02T14:53:51Z</time>
      </trkpt>
      <trkpt lat="42.86587" lon="2.15413">
        <ele>377.45</ele>
        <time>2014-03-02T14:53:56Z</time>
      </trkpt>
      <trkpt lat="42.86591" lon="2.15419">
        <ele>377.94</ele>
        <time>2014-03-02T14:54:03Z</time>
      </trkpt>
      <trkpt lat="42.86597" lon="2.15427">
        <ele>378.42</ele>
        <time>2014-03-02T14:54:11Z</time>
      </trkpt>
      <trkpt lat="42.86604" lon="2.15433">
        <ele>379.38</ele>
        <time>2014-03-02T14:54:19Z</time>
      </trkpt>
      <trkpt lat="42.86606" lon="2.15438">
        <ele>379.38</ele>
        <time>2014-03-02T14:54:28Z</time>
      </trkpt>
      <trkpt lat="42.8661" lon="2.15445">
        <ele>379.86</ele>
        <time>2014-03-02T14:54:38Z</time>
      </trkpt>
      <trkpt lat="42.86615" lon="2.15451">
        <ele>380.34</ele>
        <time>2014-03-02T14:54:47Z</time>
      </trkpt>
      <trkpt lat="42.86619" lon="2.1546">
        <ele>380.82</ele>
        <time>2014-03-02T14:54:55Z</time>
      </trkpt>
      <trkpt lat="42.86623" lon="2.15464">
        <ele>381.3</ele>
        <time>2014-03-02T14:55:04Z</time>
      </trkpt>
      <trkpt lat="42.86629" lon="2.1547">
        <ele>381.3</ele>
        <time>2014-03-02T14:55:14Z</time>
      </trkpt>
      <trkpt lat="42.86636" lon="2.15475">
        <ele>381.3</ele>
        <time>2014-03-02T14:55:23Z</time>
      </trkpt>
      <trkpt lat="42.86642" lon="2.15475">
        <ele>381.3</ele>
        <time>2014-03-02T14:55:31Z</time>
      </trkpt>
      <trkpt lat="42.86649" lon="2.15465">
        <ele>378.42</ele>
        <time>2014-03-02T14:55:43Z</time>
      </trkpt>
      <trkpt lat="42.86654" lon="2.15471">
        <ele>377.94</ele>
        <time>2014-03-02T14:55:49Z</time>
      </trkpt>
      <trkpt lat="42.86652" lon="2.15479">
        <ele>377.94</ele>
        <time>2014-03-02T14:55:59Z</time>
      </trkpt>
      <trkpt lat="42.86649" lon="2.15493">
        <ele>376.97</ele>
        <time>2014-03-02T14:56:10Z</time>
      </trkpt>
      <trkpt lat="42.86652" lon="2.15508">
        <ele>376.01</ele>
        <time>2014-03-02T14:56:25Z</time>
      </trkpt>
      <trkpt lat="42.8665" lon="2.15504">
        <ele>376.01</ele>
        <time>2014-03-02T14:56:43Z</time>
      </trkpt>
      <trkpt lat="42.8665" lon="2.15512">
        <ele>376.01</ele>
        <time>2014-03-02T14:56:52Z</time>
      </trkpt>
      <trkpt lat="42.86652" lon="2.15517">
        <ele>375.53</ele>
        <time>2014-03-02T14:56:56Z</time>
      </trkpt>
      <trkpt lat="42.86653" lon="2.15527">
        <ele>375.05</ele>
        <time>2014-03-02T14:57:02Z</time>
      </trkpt>
      <trkpt lat="42.86654" lon="2.15529">
        <ele>374.57</ele>
        <time>2014-03-02T14:57:09Z</time>
      </trkpt>
      <trkpt lat="42.86656" lon="2.15531">
        <ele>374.57</ele>
        <time>2014-03-02T14:57:20Z</time>
      </trkpt>
      <trkpt lat="42.86656" lon="2.15532">
        <ele>374.09</ele>
        <time>2014-03-02T14:57:21Z</time>
      </trkpt>
      <trkpt lat="42.86656" lon="2.15534">
        <ele>374.09</ele>
        <time>2014-03-02T14:57:22Z</time>
      </trkpt>
      <trkpt lat="42.86659" lon="2.15547">
        <ele>373.13</ele>
        <time>2014-03-02T14:57:32Z</time>
      </trkpt>
      <trkpt lat="42.8666" lon="2.15553">
        <ele>372.17</ele>
        <time>2014-03-02T14:57:37Z</time>
      </trkpt>
      <trkpt lat="42.8666" lon="2.15555">
        <ele>372.17</ele>
        <time>2014-03-02T14:57:39Z</time>
      </trkpt>
      <trkpt lat="42.86659" lon="2.15567">
        <ele>370.73</ele>
        <time>2014-03-02T14:57:49Z</time>
      </trkpt>
      <trkpt lat="42.86658" lon="2.15576">
        <ele>369.76</ele>
        <time>2014-03-02T14:57:57Z</time>
      </trkpt>
      <trkpt lat="42.86659" lon="2.15584">
        <ele>369.28</ele>
        <time>2014-03-02T14:58:05Z</time>
      </trkpt>
      <trkpt lat="42.86659" lon="2.15592">
        <ele>367.84</ele>
        <time>2014-03-02T14:58:11Z</time>
      </trkpt>
      <trkpt lat="42.86658" lon="2.156">
        <ele>366.4</ele>
        <time>2014-03-02T14:58:18Z</time>
      </trkpt>
      <trkpt lat="42.86657" lon="2.15609">
        <ele>364.96</ele>
        <time>2014-03-02T14:58:25Z</time>
      </trkpt>
      <trkpt lat="42.86656" lon="2.1562">
        <ele>364.48</ele>
        <time>2014-03-02T14:58:33Z</time>
      </trkpt>
      <trkpt lat="42.86654" lon="2.1563">
        <ele>363.52</ele>
        <time>2014-03-02T14:58:41Z</time>
      </trkpt>
      <trkpt lat="42.86652" lon="2.15636">
        <ele>363.04</ele>
        <time>2014-03-02T14:58:49Z</time>
      </trkpt>
      <trkpt lat="42.86652" lon="2.15637">
        <ele>362.55</ele>
        <time>2014-03-02T14:58:53Z</time>
      </trkpt>
      <trkpt lat="42.86653" lon="2.15644">
        <ele>361.59</ele>
        <time>2014-03-02T14:58:59Z</time>
      </trkpt>
      <trkpt lat="42.86653" lon="2.15645">
        <ele>361.59</ele>
        <time>2014-03-02T14:59:00Z</time>
      </trkpt>
      <trkpt lat="42.86653" lon="2.15653">
        <ele>360.15</ele>
        <time>2014-03-02T14:59:07Z</time>
      </trkpt>
      <trkpt lat="42.86658" lon="2.1566">
        <ele>357.75</ele>
        <time>2014-03-02T14:59:13Z</time>
      </trkpt>
      <trkpt lat="42.86664" lon="2.15663">
        <ele>357.75</ele>
        <time>2014-03-02T14:59:20Z</time>
      </trkpt>
      <trkpt lat="42.86668" lon="2.15663">
        <ele>357.27</ele>
        <time>2014-03-02T14:59:31Z</time>
      </trkpt>
      <trkpt lat="42.86669" lon="2.15664">
        <ele>357.27</ele>
        <time>2014-03-02T14:59:32Z</time>
      </trkpt>
      <trkpt lat="42.86678" lon="2.15665">
        <ele>357.27</ele>
        <time>2014-03-02T14:59:41Z</time>
      </trkpt>
      <trkpt lat="42.86683" lon="2.15664">
        <ele>357.27</ele>
        <time>2014-03-02T14:59:46Z</time>
      </trkpt>
      <trkpt lat="42.86688" lon="2.15663">
        <ele>358.71</ele>
        <time>2014-03-02T14:59:53Z</time>
      </trkpt>
      <trkpt lat="42.86688" lon="2.15663">
        <ele>358.71</ele>
        <time>2014-03-02T14:59:54Z</time>
      </trkpt>
      <trkpt lat="42.86696" lon="2.15661">
        <ele>359.19</ele>
        <time>2014-03-02T15:00:02Z</time>
      </trkpt>
      <trkpt lat="42.86699" lon="2.15661">
        <ele>359.19</ele>
        <time>2014-03-02T15:00:04Z</time>
      </trkpt>
      <trkpt lat="42.86701" lon="2.15663">
        <ele>359.19</ele>
        <time>2014-03-02T15:00:07Z</time>
      </trkpt>
      <trkpt lat="42.86703" lon="2.15665">
        <ele>359.19</ele>
        <time>2014-03-02T15:00:13Z</time>
      </trkpt>
      <trkpt lat="42.86705" lon="2.15671">
        <ele>359.67</ele>
        <time>2014-03-02T15:00:20Z</time>
      </trkpt>
      <trkpt lat="42.86705" lon="2.1568">
        <ele>359.67</ele>
        <time>2014-03-02T15:00:27Z</time>
      </trkpt>
      <trkpt lat="42.86706" lon="2.1569">
        <ele>359.67</ele>
        <time>2014-03-02T15:00:35Z</time>
      </trkpt>
      <trkpt lat="42.86706" lon="2.15695">
        <ele>358.23</ele>
        <time>2014-03-02T15:00:38Z</time>
      </trkpt>
      <trkpt lat="42.86706" lon="2.15699">
        <ele>358.23</ele>
        <time>2014-03-02T15:00:44Z</time>
      </trkpt>
      <trkpt lat="42.86706" lon="2.15709">
        <ele>357.27</ele>
        <time>2014-03-02T15:00:52Z</time>
      </trkpt>
      <trkpt lat="42.86705" lon="2.15722">
        <ele>356.79</ele>
        <time>2014-03-02T15:01:01Z</time>
      </trkpt>
      <trkpt lat="42.86705" lon="2.15729">
        <ele>356.31</ele>
        <time>2014-03-02T15:01:08Z</time>
      </trkpt>
      <trkpt lat="42.86705" lon="2.15739">
        <ele>355.34</ele>
        <time>2014-03-02T15:01:16Z</time>
      </trkpt>
      <trkpt lat="42.86705" lon="2.1574">
        <ele>355.34</ele>
        <time>2014-03-02T15:01:17Z</time>
      </trkpt>
      <trkpt lat="42.86704" lon="2.15746">
        <ele>354.86</ele>
        <time>2014-03-02T15:01:26Z</time>
      </trkpt>
      <trkpt lat="42.86705" lon="2.15749">
        <ele>354.86</ele>
        <time>2014-03-02T15:01:42Z</time>
      </trkpt>
      <trkpt lat="42.86709" lon="2.15755">
        <ele>354.86</ele>
        <time>2014-03-02T15:01:51Z</time>
      </trkpt>
      <trkpt lat="42.86716" lon="2.15757">
        <ele>357.75</ele>
        <time>2014-03-02T15:02:00Z</time>
      </trkpt>
      <trkpt lat="42.86722" lon="2.15763">
        <ele>357.75</ele>
        <time>2014-03-02T15:02:09Z</time>
      </trkpt>
      <trkpt lat="42.86727" lon="2.15768">
        <ele>358.71</ele>
        <time>2014-03-02T15:02:19Z</time>
      </trkpt>
      <trkpt lat="42.8673" lon="2.15773">
        <ele>359.67</ele>
        <time>2014-03-02T15:02:31Z</time>
      </trkpt>
      <trkpt lat="42.86737" lon="2.15783">
        <ele>358.23</ele>
        <time>2014-03-02T15:02:41Z</time>
      </trkpt>
      <trkpt lat="42.86738" lon="2.15793">
        <ele>356.79</ele>
        <time>2014-03-02T15:02:52Z</time>
      </trkpt>
      <trkpt lat="42.86737" lon="2.15792">
        <ele>356.79</ele>
        <time>2014-03-02T15:03:01Z</time>
      </trkpt>
      <trkpt lat="42.86737" lon="2.15792">
        <ele>356.79</ele>
        <time>2014-03-02T15:03:04Z</time>
      </trkpt>
      <trkpt lat="42.8674" lon="2.15804">
        <ele>356.31</ele>
        <time>2014-03-02T15:03:14Z</time>
      </trkpt>
      <trkpt lat="42.86742" lon="2.1581">
        <ele>355.83</ele>
        <time>2014-03-02T15:03:19Z</time>
      </trkpt>
      <trkpt lat="42.86739" lon="2.15807">
        <ele>354.86</ele>
        <time>2014-03-02T15:03:26Z</time>
      </trkpt>
      <trkpt lat="42.86736" lon="2.15806">
        <ele>353.42</ele>
        <time>2014-03-02T15:03:33Z</time>
      </trkpt>
      <trkpt lat="42.86728" lon="2.15808">
        <ele>351.98</ele>
        <time>2014-03-02T15:03:40Z</time>
      </trkpt>
      <trkpt lat="42.86726" lon="2.1581">
        <ele>351.02</ele>
        <time>2014-03-02T15:03:42Z</time>
      </trkpt>
      <trkpt lat="42.86716" lon="2.15817">
        <ele>348.13</ele>
        <time>2014-03-02T15:03:53Z</time>
      </trkpt>
      <trkpt lat="42.86712" lon="2.1582">
        <ele>347.65</ele>
        <time>2014-03-02T15:04:01Z</time>
      </trkpt>
      <trkpt lat="42.86706" lon="2.15823">
        <ele>346.21</ele>
        <time>2014-03-02T15:04:10Z</time>
      </trkpt>
      <trkpt lat="42.86699" lon="2.15824">
        <ele>345.73</ele>
        <time>2014-03-02T15:04:17Z</time>
      </trkpt>
      <trkpt lat="42.86699" lon="2.15824">
        <ele>345.73</ele>
        <time>2014-03-02T15:04:18Z</time>
      </trkpt>
      <trkpt lat="42.86696" lon="2.15821">
        <ele>345.25</ele>
        <time>2014-03-02T15:04:25Z</time>
      </trkpt>
      <trkpt lat="42.86693" lon="2.15817">
        <ele>344.77</ele>
        <time>2014-03-02T15:04:34Z</time>
      </trkpt>
      <trkpt lat="42.86689" lon="2.15816">
        <ele>344.29</ele>
        <time>2014-03-02T15:04:40Z</time>
      </trkpt>
      <trkpt lat="42.86682" lon="2.15818">
        <ele>344.29</ele>
        <time>2014-03-02T15:04:47Z</time>
      </trkpt>
      <trkpt lat="42.86676" lon="2.15818">
        <ele>344.29</ele>
        <time>2014-03-02T15:04:52Z</time>
      </trkpt>
      <trkpt lat="42.86669" lon="2.15817">
        <ele>343.81</ele>
        <time>2014-03-02T15:05:00Z</time>
      </trkpt>
      <trkpt lat="42.86659" lon="2.15822">
        <ele>343.81</ele>
        <time>2014-03-02T15:05:09Z</time>
      </trkpt>
      <trkpt lat="42.86656" lon="2.15828">
        <ele>343.81</ele>
        <time>2014-03-02T15:05:17Z</time>
      </trkpt>
      <trkpt lat="42.86658" lon="2.15826">
        <ele>343.81</ele>
        <time>2014-03-02T15:05:24Z</time>
      </trkpt>
      <trkpt lat="42.86659" lon="2.15828">
        <ele>343.81</ele>
        <time>2014-03-02T15:05:32Z</time>
      </trkpt>
      <trkpt lat="42.86658" lon="2.15827">
        <ele>343.81</ele>
        <time>2014-03-02T15:06:03Z</time>
      </trkpt>
      <trkpt lat="42.86658" lon="2.15825">
        <ele>343.81</ele>
        <time>2014-03-02T15:06:29Z</time>
      </trkpt>
      <trkpt lat="42.86659" lon="2.15827">
        <ele>345.25</ele>
        <time>2014-03-02T15:06:32Z</time>
      </trkpt>
      <trkpt lat="42.8666" lon="2.15828">
        <ele>345.25</ele>
        <time>2014-03-02T15:06:35Z</time>
      </trkpt>
      <trkpt lat="42.86668" lon="2.15829">
        <ele>345.25</ele>
        <time>2014-03-02T15:06:43Z</time>
      </trkpt>
      <trkpt lat="42.86672" lon="2.15831">
        <ele>345.25</ele>
        <time>2014-03-02T15:06:47Z</time>
      </trkpt>
      <trkpt lat="42.86676" lon="2.15834">
        <ele>345.73</ele>
        <time>2014-03-02T15:06:55Z</time>
      </trkpt>
      <trkpt lat="42.86677" lon="2.15834">
        <ele>346.69</ele>
        <time>2014-03-02T15:07:00Z</time>
      </trkpt>
      <trkpt lat="42.8668" lon="2.15836">
        <ele>346.69</ele>
        <time>2014-03-02T15:07:04Z</time>
      </trkpt>
      <trkpt lat="42.86685" lon="2.15841">
        <ele>345.25</ele>
        <time>2014-03-02T15:07:10Z</time>
      </trkpt>
      <trkpt lat="42.86687" lon="2.15846">
        <ele>345.25</ele>
        <time>2014-03-02T15:07:16Z</time>
      </trkpt>
      <trkpt lat="42.86691" lon="2.15854">
        <ele>345.25</ele>
        <time>2014-03-02T15:07:22Z</time>
      </trkpt>
      <trkpt lat="42.86692" lon="2.15857">
        <ele>345.25</ele>
        <time>2014-03-02T15:07:24Z</time>
      </trkpt>
      <trkpt lat="42.86693" lon="2.15865">
        <ele>345.25</ele>
        <time>2014-03-02T15:07:30Z</time>
      </trkpt>
      <trkpt lat="42.86693" lon="2.15874">
        <ele>345.25</ele>
        <time>2014-03-02T15:07:36Z</time>
      </trkpt>
      <trkpt lat="42.86693" lon="2.15879">
        <ele>345.25</ele>
        <time>2014-03-02T15:07:40Z</time>
      </trkpt>
      <trkpt lat="42.86694" lon="2.15884">
        <ele>344.77</ele>
        <time>2014-03-02T15:07:44Z</time>
      </trkpt>
      <trkpt lat="42.86694" lon="2.15886">
        <ele>344.77</ele>
        <time>2014-03-02T15:07:45Z</time>
      </trkpt>
      <trkpt lat="42.86694" lon="2.15888">
        <ele>344.29</ele>
        <time>2014-03-02T15:07:46Z</time>
      </trkpt>
      <trkpt lat="42.86693" lon="2.15892">
        <ele>344.29</ele>
        <time>2014-03-02T15:07:50Z</time>
      </trkpt>
      <trkpt lat="42.86693" lon="2.15895">
        <ele>344.29</ele>
        <time>2014-03-02T15:07:51Z</time>
      </trkpt>
      <trkpt lat="42.86692" lon="2.15897">
        <ele>344.29</ele>
        <time>2014-03-02T15:07:52Z</time>
      </trkpt>
      <trkpt lat="42.86692" lon="2.15901">
        <ele>343.81</ele>
        <time>2014-03-02T15:07:56Z</time>
      </trkpt>
      <trkpt lat="42.86692" lon="2.15903">
        <ele>343.81</ele>
        <time>2014-03-02T15:07:57Z</time>
      </trkpt>
      <trkpt lat="42.86691" lon="2.15905">
        <ele>343.81</ele>
        <time>2014-03-02T15:07:58Z</time>
      </trkpt>
      <trkpt lat="42.86691" lon="2.15911">
        <ele>343.33</ele>
        <time>2014-03-02T15:08:03Z</time>
      </trkpt>
      <trkpt lat="42.8669" lon="2.15913">
        <ele>343.33</ele>
        <time>2014-03-02T15:08:04Z</time>
      </trkpt>
      <trkpt lat="42.86691" lon="2.15916">
        <ele>342.85</ele>
        <time>2014-03-02T15:08:07Z</time>
      </trkpt>
      <trkpt lat="42.86692" lon="2.15924">
        <ele>342.85</ele>
        <time>2014-03-02T15:08:14Z</time>
      </trkpt>
      <trkpt lat="42.86693" lon="2.15927">
        <ele>342.85</ele>
        <time>2014-03-02T15:08:21Z</time>
      </trkpt>
      <trkpt lat="42.86694" lon="2.1593">
        <ele>342.37</ele>
        <time>2014-03-02T15:08:25Z</time>
      </trkpt>
      <trkpt lat="42.86696" lon="2.15938">
        <ele>341.89</ele>
        <time>2014-03-02T15:08:32Z</time>
      </trkpt>
      <trkpt lat="42.86699" lon="2.15949">
        <ele>341.89</ele>
        <time>2014-03-02T15:08:40Z</time>
      </trkpt>
      <trkpt lat="42.86699" lon="2.1595">
        <ele>341.89</ele>
        <time>2014-03-02T15:08:41Z</time>
      </trkpt>
      <trkpt lat="42.86701" lon="2.15957">
        <ele>341.41</ele>
        <time>2014-03-02T15:08:49Z</time>
      </trkpt>
      <trkpt lat="42.86706" lon="2.15967">
        <ele>340.92</ele>
        <time>2014-03-02T15:08:57Z</time>
      </trkpt>
      <trkpt lat="42.86712" lon="2.15977">
        <ele>340.44</ele>
        <time>2014-03-02T15:09:06Z</time>
      </trkpt>
      <trkpt lat="42.86715" lon="2.15986">
        <ele>340.44</ele>
        <time>2014-03-02T15:09:14Z</time>
      </trkpt>
      <trkpt lat="42.86719" lon="2.15995">
        <ele>339.96</ele>
        <time>2014-03-02T15:09:22Z</time>
      </trkpt>
      <trkpt lat="42.86724" lon="2.16003">
        <ele>339</ele>
        <time>2014-03-02T15:09:30Z</time>
      </trkpt>
      <trkpt lat="42.8673" lon="2.16014">
        <ele>338.04</ele>
        <time>2014-03-02T15:09:39Z</time>
      </trkpt>
      <trkpt lat="42.86735" lon="2.16021">
        <ele>337.08</ele>
        <time>2014-03-02T15:09:47Z</time>
      </trkpt>
      <trkpt lat="42.86742" lon="2.16029">
        <ele>337.08</ele>
        <time>2014-03-02T15:09:55Z</time>
      </trkpt>
      <trkpt lat="42.8675" lon="2.16039">
        <ele>335.64</ele>
        <time>2014-03-02T15:10:05Z</time>
      </trkpt>
      <trkpt lat="42.8675" lon="2.16043">
        <ele>336.12</ele>
        <time>2014-03-02T15:10:14Z</time>
      </trkpt>
      <trkpt lat="42.8675" lon="2.16045">
        <ele>336.12</ele>
        <time>2014-03-02T15:10:22Z</time>
      </trkpt>
      <trkpt lat="42.86749" lon="2.16047">
        <ele>336.12</ele>
        <time>2014-03-02T15:10:34Z</time>
      </trkpt>
      <trkpt lat="42.86751" lon="2.16046">
        <ele>337.08</ele>
        <time>2014-03-02T15:10:47Z</time>
      </trkpt>
    </trkseg>
  </trk>
</gpx>